Mill Point, West Virginia
Current Conditions -  °F | °C
As of 6:35 PM on Saturday 22 Nov 2014 (Local Time) from KLWB Reporting Station
Clear Clear  
Wind Chill: 41°   Ceiling: Unl
Heat Index: 41°   Visibility: 10mi
Dew Point: 20°   Wind: 0mph
Humidity: 44%   Direction: NA
Pressure: 30.23"   Gusts: NA
Location:  38.1931°N, 80.2861°W
Report Text: KLWB 222335Z AUTO 00000KT 10SM CLR 05/M06 A3023 RMK AO2 T00501065
Loading
Personal Weather Stations






























Interactive Weather Map New forecast layout! Learn more

10-Day Weather Forecast

Advertisements
Track Severe Weather on mobile